Terminal Aerodrome Forecast
Issued by NWS Lubbock, TX

Home | Current Version | Previous Version | Text Only | Print | Product List | Glossary On
Versions: 1 2 3 4 5 6 7 8 9 10 11 12 13
000
FTUS44 KLUB 032326
TAFLBB
TAF
KLBB 032326Z 0400/0424 27013KT P6SM FEW070 BKN250
      TEMPO 0400/0403 VRB25KT 3SM TSRA BKN060CB
     FM040300 VRB06KT P6SM FEW250
     FM041400 17011KT P6SM FEW060 FEW250=

USA.gov is the U.S. government's official web portal to all federal, state and local government web resources and services.